createdAt,value
2023-02-08T05:05:49.377Z,0.05
2023-02-08T05:06:49.821Z,0.05
2023-02-08T05:07:50.343Z,0.05
2023-02-08T05:08:51.069Z,0.05
2023-02-08T05:09:51.679Z,0.05
2023-02-08T05:10:52.601Z,0.05
2023-02-08T05:11:52.676Z,0.05
2023-02-08T05:12:53.311Z,0.05
2023-02-08T05:13:53.927Z,0.05
2023-02-08T05:14:54.473Z,0.05
2023-02-08T05:15:55.361Z,0.05
2023-02-08T05:16:56.132Z,0.05
2023-02-08T05:17:56.862Z,0.05
2023-02-08T05:18:57.558Z,0.05
2023-02-08T05:19:58.295Z,0.05
2023-02-08T05:20:59.309Z,0.05
2023-02-08T05:22:00.145Z,0.05
2023-02-08T05:23:00.621Z,0.05
2023-02-08T05:24:01.432Z,0.05
2023-02-08T05:25:02.027Z,0.05
2023-02-08T05:26:02.900Z,0.05
2023-02-08T05:27:03.606Z,0.05
2023-02-08T05:28:04.071Z,0.05
2023-02-08T05:29:04.870Z,0.05
2023-02-08T05:30:05.414Z,0.05
2023-02-08T05:31:06.157Z,0.05
2023-02-08T05:32:06.506Z,0.05
2023-02-08T05:33:07.155Z,0.05
2023-02-08T05:34:10.593Z,0.05
2023-02-08T05:35:08.213Z,0.05
2023-02-08T05:36:08.994Z,0.05
2023-02-08T05:37:09.850Z,0.05
2023-02-08T05:38:10.399Z,0.05
2023-02-08T05:39:11.032Z,0.05
2023-02-08T05:39:20.097Z,0.05
2023-02-08T05:40:20.442Z,0.05
2023-02-08T05:41:21.004Z,0.05
2023-02-08T05:42:21.585Z,0.05
2023-02-08T05:43:22.276Z,0.05
2023-02-08T05:44:22.797Z,0.05
2023-02-08T05:45:23.245Z,0.05
2023-02-08T05:46:24.147Z,0.05
2023-02-08T05:47:24.715Z,0.05
2023-02-08T05:48:25.274Z,0.05
2023-02-08T05:49:25.832Z,0.05
2023-02-08T05:50:26.663Z,0.05
2023-02-08T05:51:27.184Z,0.05
2023-02-08T05:52:27.709Z,0.05
2023-02-08T05:53:28.160Z,0.05
2023-02-08T05:54:28.529Z,0.05
2023-02-08T05:55:29.052Z,0.05
2023-02-08T05:56:29.830Z,0.05
2023-02-08T05:57:31.938Z,0.05
2023-02-08T05:58:30.694Z,0.05
2023-02-08T05:59:31.228Z,0.05
2023-02-08T06:00:31.738Z,0.09
2023-02-08T06:01:32.496Z,0.09
2023-02-08T06:02:33.325Z,0.09
2023-02-08T06:03:33.880Z,0.09
2023-02-08T06:04:34.580Z,0.09
2023-02-08T06:05:35.326Z,0.14
2023-02-08T06:06:36.042Z,0.14
2023-02-08T06:07:36.613Z,0.14
2023-02-08T06:08:36.661Z,0.18
2023-02-08T06:09:37.368Z,0.18
2023-02-08T06:10:38.311Z,0.22
2023-02-08T06:11:38.727Z,0.27
2023-02-08T06:11:48.408Z,0.27
2023-02-08T06:12:48.849Z,0.31
2023-02-08T06:13:49.819Z,0.41
2023-02-08T06:14:50.442Z,0.50
2023-02-08T06:15:51.228Z,0.58
2023-02-08T06:16:52.153Z,0.68
2023-02-08T06:17:52.704Z,0.81
2023-02-08T06:18:53.367Z,0.94
2023-02-08T06:19:54.237Z,1.17
2023-02-08T06:20:55.077Z,1.35
2023-02-08T06:21:55.703Z,1.62
2023-02-08T06:22:56.520Z,1.93
2023-02-08T06:23:56.860Z,2.30
2023-02-08T06:24:57.022Z,2.79
2023-02-08T06:25:57.608Z,3.42
2023-02-08T06:26:58.270Z,4.09
2023-02-08T06:27:58.866Z,5.04
2023-02-08T06:28:59.456Z,6.12
2023-02-08T06:30:00.036Z,7.43
2023-02-08T06:31:00.896Z,9.05
2023-02-08T06:32:01.356Z,10.80
2023-02-08T06:33:01.990Z,12.96
2023-02-08T06:34:02.582Z,15.48
2023-02-08T06:35:03.178Z,18.45
2023-02-08T06:36:03.428Z,21.78
2023-02-08T06:37:04.084Z,25.56
2023-02-08T06:38:04.795Z,30.06
2023-02-08T06:39:05.332Z,35.10
2023-02-08T06:40:05.925Z,40.68
2023-02-08T06:41:06.391Z,46.80
2023-02-08T06:42:07.004Z,53.64
2023-02-08T06:43:07.110Z,60.84
2023-02-08T06:44:10.678Z,69.84
2023-02-08T06:44:30.829Z,73.08
2023-02-08T06:45:31.222Z,82.80
2023-02-08T06:46:31.568Z,92.88
2023-02-08T06:47:32.193Z,103.68
2023-02-08T06:48:32.935Z,115.92
2023-02-08T06:49:33.540Z,128.16
2023-02-08T06:50:33.978Z,141.84
2023-02-08T06:51:34.484Z,156.24
2023-02-08T06:52:35.446Z,171.36
2023-02-08T06:53:36.131Z,187.20
2023-02-08T06:54:36.761Z,204.48
2023-02-08T06:55:37.513Z,220.32
2023-02-08T06:56:39.052Z,239.04
2023-02-08T06:57:38.770Z,256.32
2023-02-08T06:58:39.553Z,276.48
2023-02-08T06:59:40.300Z,295.20
2023-02-08T07:00:40.719Z,315.36
2023-02-08T07:01:40.961Z,335.52
2023-02-08T07:02:41.657Z,357.12
2023-02-08T07:03:41.200Z,377.28
2023-02-08T07:04:41.825Z,397.44
2023-02-08T07:05:49.504Z,423.36
2023-02-08T07:06:43.292Z,440.64
2023-02-08T07:07:44.079Z,463.68
2023-02-08T07:08:44.299Z,483.84
2023-02-08T07:09:45.265Z,506.88
2023-02-08T07:10:46.507Z,529.92
2023-02-08T07:11:46.848Z,550.08
2023-02-08T07:12:47.519Z,570.24
2023-02-08T07:13:48.476Z,593.28
2023-02-08T07:14:49.307Z,616.32
2023-02-08T07:15:03.970Z,619.20
2023-02-08T07:16:04.488Z,639.36
2023-02-08T07:17:05.400Z,662.40
2023-02-08T07:18:06.034Z,682.56
2023-02-08T07:19:06.734Z,702.72
2023-02-08T07:20:07.248Z,722.88
2023-02-08T07:21:08.048Z,743.04
2023-02-08T07:22:08.796Z,760.32
2023-02-08T07:23:08.819Z,777.60
2023-02-08T07:24:09.627Z,800.64
2023-02-08T07:25:10.512Z,817.92
2023-02-08T07:26:11.177Z,835.20
2023-02-08T07:27:11.365Z,852.48
2023-02-08T07:28:12.080Z,869.76
2023-02-08T07:29:12.624Z,887.04
2023-02-08T07:30:13.348Z,904.32
2023-02-08T07:31:13.941Z,921.60
2023-02-08T07:32:14.779Z,938.88
2023-02-08T07:33:15.504Z,956.16
2023-02-08T07:34:16.107Z,973.44
2023-02-08T07:35:16.342Z,990.72
2023-02-08T07:36:16.907Z,1008.00
2023-02-08T07:37:17.807Z,1065.60
2023-02-08T07:38:20.357Z,1082.88
2023-02-08T07:39:18.541Z,1100.16
2023-02-08T07:40:19.088Z,1117.44
2023-02-08T07:41:19.398Z,1128.96
2023-02-08T07:42:20.084Z,1152.00
2023-02-08T07:43:21.296Z,1163.52
2023-02-08T07:44:21.415Z,1180.80
2023-02-08T07:45:22.127Z,1198.08
2023-02-08T07:45:31.289Z,1198.08
2023-02-08T07:46:31.986Z,1209.60
2023-02-08T07:47:32.644Z,1226.88
2023-02-08T07:48:33.217Z,1238.40
2023-02-08T07:49:33.973Z,1255.68
2023-02-08T07:50:34.457Z,1267.20
2023-02-08T07:51:35.260Z,1278.72
2023-02-08T07:52:35.922Z,1290.24
2023-02-08T07:53:36.755Z,1307.52
2023-02-08T07:54:37.433Z,1319.04
2023-02-08T07:55:38.064Z,1330.56
2023-02-08T07:56:38.857Z,1342.08
2023-02-08T07:57:39.721Z,1353.60
2023-02-08T07:58:40.286Z,1365.12
2023-02-08T07:59:41.117Z,1376.64
2023-02-08T08:00:42.037Z,1393.92
2023-02-08T08:01:42.036Z,1399.68
2023-02-08T08:02:42.791Z,1411.20
2023-02-08T08:03:43.546Z,1428.48
2023-02-08T08:04:44.164Z,1440.00
2023-02-08T08:05:44.453Z,1451.52
2023-02-08T08:06:44.549Z,1463.04
2023-02-08T08:07:44.775Z,1474.56
2023-02-08T08:08:45.398Z,1486.08
2023-02-08T08:09:45.551Z,1497.60
2023-02-08T08:10:45.970Z,1509.12
2023-02-08T08:11:46.073Z,1520.64
2023-02-08T08:12:46.535Z,1532.16
2023-02-08T08:13:47.486Z,1543.68
2023-02-08T08:14:47.598Z,1555.20
2023-02-08T08:14:58.266Z,1555.20
2023-02-08T08:16:02.279Z,1566.72
2023-02-08T08:16:59.920Z,1566.72
2023-02-08T08:18:00.595Z,1578.24
2023-02-08T08:19:01.563Z,1589.76
2023-02-08T08:20:01.753Z,1601.28
2023-02-08T08:21:01.709Z,1612.80
2023-02-08T08:22:02.458Z,1624.32
2023-02-08T08:23:03.225Z,1624.32
2023-02-08T08:24:03.827Z,1647.36
2023-02-08T08:25:04.164Z,1647.36
2023-02-08T08:26:04.432Z,1670.40
2023-02-08T08:27:05.222Z,1670.40
2023-02-08T08:28:05.442Z,1681.92
2023-02-08T08:29:06.375Z,1693.44
2023-02-08T08:30:08.080Z,1704.96
2023-02-08T08:31:07.923Z,1716.48
2023-02-08T08:32:11.772Z,1728.00
2023-02-08T08:33:09.304Z,1728.00
2023-02-08T08:34:09.569Z,1739.52
2023-02-08T08:35:10.231Z,1739.52
2023-02-08T08:36:11.167Z,1762.56
2023-02-08T08:37:11.532Z,1762.56
2023-02-08T08:38:12.304Z,1774.08
2023-02-08T08:39:12.709Z,1774.08
2023-02-08T08:40:13.173Z,1785.60
2023-02-08T08:41:13.512Z,1785.60
2023-02-08T08:42:14.347Z,1797.12
2023-02-08T08:43:14.740Z,1797.12
2023-02-08T08:44:15.382Z,1797.12
2023-02-08T08:45:16.218Z,1808.64
2023-02-08T08:46:17.082Z,1820.16
2023-02-08T08:47:17.820Z,1831.68
2023-02-08T08:47:30.899Z,1831.68
2023-02-08T08:48:29.349Z,1831.68
2023-02-08T08:49:29.463Z,1843.20
2023-02-08T08:50:29.579Z,1843.20
2023-02-08T08:51:31.368Z,1854.72
2023-02-08T08:52:31.147Z,1866.24
2023-02-08T08:53:31.802Z,1866.24
2023-02-08T08:54:32.176Z,1877.76
2023-02-08T08:55:32.199Z,1877.76
2023-02-08T08:56:32.846Z,1889.28
2023-02-08T08:57:33.923Z,1889.28
2023-02-08T08:58:33.448Z,1900.80
2023-02-08T08:59:34.186Z,1912.32
2023-02-08T09:00:35.103Z,1912.32
2023-02-08T09:01:35.847Z,1912.32
2023-02-08T09:02:35.948Z,1912.32
2023-02-08T09:03:36.671Z,1923.84
2023-02-08T09:04:37.439Z,1923.84
2023-02-08T09:05:38.101Z,1923.84
2023-02-08T09:06:38.762Z,1935.36
2023-02-08T09:07:39.640Z,1946.88
2023-02-08T09:08:40.454Z,1946.88
2023-02-08T09:09:41.147Z,1958.40
2023-02-08T09:10:42.076Z,1969.92
2023-02-08T09:11:42.558Z,1969.92
2023-02-08T09:12:43.130Z,1981.44
2023-02-08T09:13:43.735Z,1981.44
2023-02-08T09:14:44.195Z,1992.96
2023-02-08T09:15:44.685Z,2004.48
2023-02-08T09:16:44.985Z,2016.00
2023-02-08T09:17:45.827Z,2027.52
2023-02-08T09:18:46.212Z,2039.04
2023-02-08T09:18:54.789Z,2039.04
2023-02-08T09:19:55.323Z,2039.04
2023-02-08T09:20:56.148Z,2050.56
2023-02-08T09:21:56.229Z,2062.08
2023-02-08T09:22:56.725Z,2050.56
2023-02-08T09:23:56.797Z,2073.60
2023-02-08T09:24:57.504Z,2096.64
2023-02-08T09:25:58.431Z,2108.16
2023-02-08T09:26:59.148Z,2119.68
2023-02-08T09:27:59.228Z,2119.68
2023-02-08T09:29:00.002Z,2131.20
2023-02-08T09:30:00.367Z,2142.72
2023-02-08T09:31:01.009Z,2154.24
2023-02-08T09:32:01.866Z,2165.76
2023-02-08T09:33:04.376Z,2165.76
2023-02-08T09:34:03.420Z,2177.28
2023-02-08T09:35:03.521Z,2177.28
2023-02-08T09:36:04.269Z,2188.80
2023-02-08T09:37:04.956Z,2188.80
2023-02-08T09:38:06.289Z,2188.80
2023-02-08T09:39:05.284Z,2200.32
2023-02-08T09:40:07.139Z,2200.32
2023-02-08T09:41:06.477Z,2223.36
2023-02-08T09:42:06.942Z,2223.36
2023-02-08T09:43:07.304Z,2223.36
2023-02-08T09:44:07.724Z,2234.88
2023-02-08T09:45:07.939Z,2246.40
2023-02-08T09:46:08.551Z,2257.92
2023-02-08T09:47:09.052Z,2257.92
2023-02-08T09:48:09.604Z,2269.44
2023-02-08T09:49:10.102Z,2269.44
2023-02-08T09:49:20.022Z,2269.44
2023-02-08T09:50:20.917Z,2280.96
2023-02-08T09:51:21.597Z,2292.48
2023-02-08T09:52:22.370Z,2292.48
2023-02-08T09:53:23.101Z,2304.00
2023-02-08T09:54:23.886Z,2304.00
2023-02-08T09:55:24.108Z,2315.52
2023-02-08T09:56:24.096Z,2327.04
2023-02-08T09:57:24.619Z,2327.04
2023-02-08T09:58:25.550Z,2338.56
2023-02-08T09:59:26.186Z,2338.56
2023-02-08T10:00:26.809Z,2338.56
2023-02-08T10:01:27.621Z,2350.08
2023-02-08T10:02:28.196Z,2350.08
2023-02-08T10:03:29.123Z,2361.60
2023-02-08T10:04:29.634Z,2373.12
2023-02-08T10:05:29.685Z,2396.16
2023-02-08T10:06:30.386Z,2396.16
2023-02-08T10:07:30.548Z,2396.16
2023-02-08T10:08:35.349Z,2396.16
2023-02-08T10:09:31.401Z,2407.68
2023-02-08T10:10:33.303Z,2419.20
2023-02-08T10:11:32.821Z,2419.20
2023-02-08T10:12:33.341Z,2430.72
2023-02-08T10:13:41.413Z,2442.24
2023-02-08T10:14:34.311Z,2453.76
2023-02-08T10:15:34.376Z,2465.28
2023-02-08T10:16:34.693Z,2465.28
2023-02-08T10:17:34.620Z,2476.80
2023-02-08T10:18:35.127Z,2488.32
2023-02-08T10:19:35.260Z,2499.84
2023-02-08T10:20:35.932Z,2511.36
2023-02-08T10:21:36.184Z,2511.36
2023-02-08T10:21:50.914Z,2511.36
2023-02-08T10:22:51.765Z,2534.40
2023-02-08T10:23:52.024Z,2568.96
2023-02-08T10:25:10.239Z,2615.04
2023-02-08T10:25:53.586Z,3502.08
2023-02-08T10:27:01.524Z,3409.92
2023-02-08T10:27:54.882Z,2626.56
2023-02-08T10:29:02.987Z,2615.04
2023-02-08T10:29:58.421Z,2672.64
2023-02-08T10:31:18.307Z,6174.72
2023-02-08T10:32:03.628Z,12718.08
2023-02-08T10:33:01.703Z,13547.52
2023-02-08T10:34:01.870Z,7741.44
2023-02-08T10:35:02.763Z,8017.92
2023-02-08T10:36:03.378Z,14837.76
2023-02-08T10:37:04.073Z,18616.32
2023-02-08T10:38:04.416Z,11520.00
2023-02-08T10:39:04.849Z,5160.96
2023-02-08T10:40:04.920Z,4515.84
2023-02-08T10:41:05.110Z,6312.96
2023-02-08T10:42:05.943Z,13547.52
2023-02-08T10:43:06.039Z,19169.28
2023-02-08T10:44:06.458Z,18339.84
2023-02-08T10:45:19.035Z,18339.84
2023-02-08T10:46:07.442Z,18892.80
2023-02-08T10:47:07.698Z,18800.64
2023-02-08T10:48:08.093Z,18892.80
2023-02-08T10:49:08.345Z,18984.96
2023-02-08T10:50:09.194Z,19077.12
2023-02-08T10:51:09.486Z,18432.00
2023-02-08T10:52:10.053Z,18432.00
2023-02-08T10:53:10.991Z,18432.00
2023-02-08T10:53:28.446Z,18432.00
2023-02-08T10:54:26.548Z,18432.00
2023-02-08T10:55:26.975Z,18432.00
2023-02-08T10:56:27.809Z,18432.00
2023-02-08T10:57:28.263Z,18524.16
2023-02-08T10:58:28.955Z,18432.00
2023-02-08T10:59:29.414Z,18432.00
2023-02-08T11:00:29.749Z,18432.00
2023-02-08T11:01:30.618Z,18432.00
2023-02-08T11:02:30.640Z,18524.16
2023-02-08T11:03:31.129Z,18616.32
2023-02-08T11:04:31.730Z,18892.80
2023-02-08T11:05:32.275Z,18984.96
2023-02-08T11:06:32.849Z,19169.28
2023-02-08T11:07:36.233Z,19445.76
2023-02-08T11:08:33.555Z,19630.08
2023-02-08T11:09:33.920Z,19722.24
2023-02-08T11:10:33.991Z,19906.56
2023-02-08T11:11:36.005Z,19998.72
2023-02-08T11:12:34.623Z,20090.88
2023-02-08T11:13:36.582Z,20090.88
2023-02-08T11:14:46.073Z,20183.04
2023-02-08T11:15:35.927Z,20367.36
2023-02-08T11:16:36.541Z,20459.52
2023-02-08T11:17:37.278Z,20828.16
2023-02-08T11:18:37.704Z,20828.16
2023-02-08T11:19:38.091Z,21104.64
2023-02-08T11:20:39.113Z,21288.96
2023-02-08T11:21:39.138Z,21473.28
2023-02-08T11:22:39.507Z,21473.28
2023-02-08T11:23:39.986Z,21473.28
2023-02-08T11:23:51.667Z,21473.28
2023-02-08T11:24:51.821Z,21473.28
2023-02-08T11:25:53.557Z,21565.44
2023-02-08T11:26:52.446Z,21749.76
2023-02-08T11:27:53.257Z,21749.76
2023-02-08T11:28:54.127Z,22118.40
2023-02-08T11:29:54.788Z,22210.56
2023-02-08T11:30:55.598Z,22487.04
2023-02-08T11:31:56.306Z,22579.20
2023-02-08T11:32:57.104Z,22671.36
2023-02-08T11:33:57.524Z,22671.36
2023-02-08T11:34:58.434Z,22763.52
2023-02-08T11:35:59.258Z,22947.84
2023-02-08T11:36:59.988Z,22855.68
2023-02-08T11:38:00.789Z,22947.84
2023-02-08T11:39:01.583Z,23132.16
2023-02-08T11:40:02.378Z,23040.00
2023-02-08T11:41:03.276Z,23316.48
2023-02-08T11:42:03.581Z,23592.96
2023-02-08T11:43:03.719Z,23500.80
2023-02-08T11:44:04.295Z,23777.28
2023-02-08T11:45:04.866Z,23500.80
2023-02-08T11:46:05.639Z,23777.28
2023-02-08T11:47:06.526Z,23777.28
2023-02-08T11:48:06.594Z,23592.96
2023-02-08T11:49:06.500Z,23592.96
2023-02-08T11:50:07.233Z,23500.80
2023-02-08T11:51:07.869Z,23592.96
2023-02-08T11:52:08.405Z,23500.80
2023-02-08T11:53:09.104Z,23592.96
2023-02-08T11:54:09.118Z,23777.28
2023-02-08T11:55:10.091Z,23777.28
2023-02-08T11:56:10.181Z,23777.28
2023-02-08T11:56:18.847Z,23777.28
2023-02-08T11:57:19.575Z,23777.28
2023-02-08T11:58:20.267Z,23961.60
2023-02-08T11:59:20.867Z,24145.92
2023-02-08T12:00:21.526Z,24145.92
2023-02-08T12:01:21.944Z,24145.92
2023-02-08T12:02:22.533Z,24330.24
2023-02-08T12:03:23.074Z,24330.24
2023-02-08T12:04:24.822Z,24145.92
2023-02-08T12:05:24.375Z,24145.92
2023-02-08T12:06:25.276Z,24145.92
2023-02-08T12:07:26.008Z,23961.60
2023-02-08T12:08:26.819Z,23777.28
2023-02-08T12:09:27.347Z,23961.60
2023-02-08T12:10:28.185Z,23961.60
2023-02-08T12:11:28.624Z,23961.60
2023-02-08T12:12:28.737Z,23961.60
2023-02-08T12:13:28.805Z,23961.60
2023-02-08T12:14:29.388Z,23961.60
2023-02-08T12:15:30.052Z,23961.60
2023-02-08T12:16:32.236Z,23592.96
2023-02-08T12:17:30.839Z,23777.28
2023-02-08T12:18:31.723Z,23777.28
2023-02-08T12:19:31.807Z,23592.96
2023-02-08T12:20:32.150Z,23592.96
2023-02-08T12:21:32.800Z,23592.96
2023-02-08T12:22:33.589Z,22579.20
2023-02-08T12:23:34.010Z,21749.76
2023-02-08T12:24:34.310Z,22394.88
2023-02-08T12:25:34.868Z,23777.28
2023-02-08T12:26:35.689Z,22947.84
2023-02-08T12:26:46.923Z,22671.36
2023-02-08T12:27:47.530Z,20643.84
2023-02-08T12:28:47.819Z,21565.44
2023-02-08T12:29:48.604Z,21934.08
2023-02-08T12:30:50.995Z,22579.20
2023-02-08T12:31:49.311Z,17971.20
2023-02-08T12:32:49.552Z,16312.32
2023-02-08T12:33:49.975Z,20459.52
2023-02-08T12:34:50.443Z,22118.40
2023-02-08T12:36:03.236Z,22210.56
2023-02-08T12:36:51.554Z,19445.76
2023-02-08T12:37:52.104Z,19261.44
2023-02-08T12:38:52.559Z,15575.04
2023-02-08T12:39:53.158Z,10552.32
2023-02-08T12:40:53.483Z,9354.24
2023-02-08T12:41:54.996Z,10690.56
2023-02-08T12:42:54.320Z,14837.76
2023-02-08T12:43:54.794Z,16312.32
2023-02-08T12:44:55.006Z,15943.68
2023-02-08T12:45:55.346Z,17694.72
2023-02-08T12:46:55.483Z,19445.76
2023-02-08T12:48:04.043Z,16496.64
2023-02-08T12:48:56.509Z,10690.56
2023-02-08T12:49:56.661Z,11520.00
2023-02-08T12:50:57.173Z,14837.76
2023-02-08T12:51:57.768Z,18339.84
2023-02-08T12:52:58.222Z,20275.20
2023-02-08T12:53:58.772Z,19998.72
2023-02-08T12:54:59.314Z,18984.96
2023-02-08T12:55:59.918Z,13916.16
2023-02-08T12:57:02.617Z,8985.60
2023-02-08T12:57:09.144Z,8616.96
2023-02-08T12:58:09.274Z,13178.88
2023-02-08T12:59:13.753Z,19814.40
2023-02-08T13:00:10.536Z,21565.44
2023-02-08T13:01:11.209Z,21934.08
2023-02-08T13:02:12.156Z,21841.92
2023-02-08T13:03:12.621Z,21288.96
2023-02-08T13:04:12.927Z,16035.84
2023-02-08T13:05:13.804Z,13178.88
2023-02-08T13:06:13.840Z,13455.36
2023-02-08T13:07:14.222Z,17694.72
2023-02-08T13:08:15.186Z,14745.60
2023-02-08T13:09:16.019Z,12902.40
2023-02-08T13:10:16.795Z,10690.56
2023-02-08T13:11:20.094Z,10552.32
2023-02-08T13:12:18.174Z,14469.12
2023-02-08T13:13:18.822Z,16957.44
2023-02-08T13:14:18.834Z,15851.52
2023-02-08T13:15:30.233Z,16496.64
2023-02-08T13:16:20.392Z,18984.96
2023-02-08T13:17:20.935Z,18432.00
2023-02-08T13:18:21.453Z,19353.60
2023-02-08T13:19:21.825Z,20090.88
2023-02-08T13:20:22.352Z,18708.48
2023-02-08T13:21:23.283Z,16496.64
2023-02-08T13:22:23.428Z,19445.76
2023-02-08T13:23:23.873Z,20183.04
2023-02-08T13:24:24.327Z,18432.00
2023-02-08T13:25:24.952Z,9492.48
2023-02-08T13:26:25.494Z,7372.80
2023-02-08T13:27:25.604Z,12625.92
2023-02-08T13:28:26.523Z,15022.08
2023-02-08T13:29:28.298Z,14653.44
2023-02-08T13:29:36.728Z,14284.80
2023-02-08T13:30:39.873Z,12072.96
2023-02-08T13:31:38.283Z,9907.20
2023-02-08T13:32:38.435Z,10828.80
2023-02-08T13:33:44.439Z,9077.76
2023-02-08T13:34:39.552Z,6635.52
2023-02-08T13:35:40.188Z,6497.28
2023-02-08T13:36:40.795Z,7418.88
2023-02-08T13:37:41.232Z,4815.36
2023-02-08T13:38:41.485Z,4608.00
2023-02-08T13:39:41.910Z,3985.92
2023-02-08T13:40:43.000Z,4331.52
2023-02-08T13:41:43.331Z,5322.24
2023-02-08T13:42:44.146Z,6819.84
2023-02-08T13:43:44.845Z,7050.24
2023-02-08T13:44:45.251Z,5944.32
2023-02-08T13:45:45.390Z,4861.44
2023-02-08T13:46:46.256Z,5713.92
2023-02-08T13:47:46.563Z,6819.84
2023-02-08T13:48:47.206Z,6174.72
2023-02-08T13:49:48.064Z,5898.24
2023-02-08T13:50:48.774Z,7741.44
2023-02-08T13:51:48.929Z,8985.60
2023-02-08T13:52:49.155Z,5391.36
2023-02-08T13:53:49.579Z,4907.52
2023-02-08T13:54:49.900Z,6451.20
2023-02-08T13:55:50.651Z,5160.96
2023-02-08T13:56:51.079Z,5690.88
2023-02-08T13:57:51.420Z,5160.96
2023-02-08T13:58:52.079Z,4953.60
2023-02-08T13:59:52.739Z,3824.64
2023-02-08T14:00:53.583Z,3548.16
2023-02-08T14:01:54.300Z,6266.88
2023-02-08T14:02:03.929Z,6773.76
2023-02-08T14:03:04.220Z,8386.56
2023-02-08T14:04:04.733Z,6865.92
2023-02-08T14:05:05.091Z,6220.80
2023-02-08T14:06:05.213Z,7234.56
2023-02-08T14:07:06.050Z,7879.68
2023-02-08T14:08:06.782Z,7879.68
2023-02-08T14:09:07.619Z,8386.56
2023-02-08T14:10:08.497Z,7464.96
2023-02-08T14:11:09.185Z,8847.36
2023-02-08T14:12:09.626Z,7741.44
2023-02-08T14:13:09.691Z,4700.16
2023-02-08T14:14:10.366Z,4032.00
2023-02-08T14:15:10.619Z,6543.36
2023-02-08T14:16:11.182Z,7695.36
2023-02-08T14:17:11.234Z,5852.16
2023-02-08T14:18:12.118Z,4700.16
2023-02-08T14:19:12.829Z,5898.24
2023-02-08T14:20:12.881Z,6681.60
2023-02-08T14:21:12.875Z,6405.12
2023-02-08T14:22:13.461Z,6497.28
2023-02-08T14:23:14.194Z,7879.68
2023-02-08T14:24:14.376Z,7695.36
2023-02-08T14:25:14.978Z,10368.00
2023-02-08T14:26:15.543Z,13363.20
2023-02-08T14:27:16.493Z,12441.60
2023-02-08T14:28:17.518Z,10275.84
2023-02-08T14:29:20.674Z,10414.08
2023-02-08T14:30:18.581Z,12902.40
2023-02-08T14:31:19.565Z,13731.84
2023-02-08T14:32:20.422Z,13086.72
2023-02-08T14:33:20.485Z,12533.76
2023-02-08T14:34:21.358Z,12257.28
2023-02-08T14:34:30.039Z,12072.96
2023-02-08T14:35:30.714Z,10552.32
2023-02-08T14:36:31.462Z,13639.68
2023-02-08T14:37:31.568Z,14008.32
2023-02-08T14:38:32.458Z,13178.88
2023-02-08T14:39:33.379Z,14192.64
2023-02-08T14:40:33.465Z,14653.44
2023-02-08T14:41:34.185Z,14837.76
2023-02-08T14:42:35.090Z,14929.92
2023-02-08T14:43:35.566Z,13178.88
2023-02-08T14:44:35.889Z,12257.28
2023-02-08T14:45:36.767Z,10828.80
2023-02-08T14:46:37.190Z,11013.12
2023-02-08T14:47:37.854Z,13731.84
2023-02-08T14:48:38.452Z,13639.68
2023-02-08T14:49:39.029Z,12533.76
2023-02-08T14:50:39.956Z,11105.28
2023-02-08T14:51:40.396Z,8663.04
2023-02-08T14:52:41.209Z,7557.12
2023-02-08T14:53:41.965Z,7188.48
2023-02-08T14:54:42.480Z,7603.20
2023-02-08T14:55:43.557Z,7833.60
2023-02-08T14:56:43.786Z,8570.88
2023-02-08T14:57:44.677Z,10644.48
2023-02-08T14:58:45.080Z,12349.44
2023-02-08T14:59:46.028Z,11520.00
2023-02-08T15:00:46.558Z,11197.44
2023-02-08T15:01:46.995Z,12165.12
2023-02-08T15:02:47.312Z,12257.28
2023-02-08T15:03:48.339Z,11980.80
2023-02-08T15:04:48.747Z,9354.24
2023-02-08T15:05:49.090Z,10321.92
2023-02-08T15:05:57.727Z,10736.64
2023-02-08T15:07:00.240Z,11658.24
2023-02-08T15:07:58.850Z,11750.40
2023-02-08T15:08:59.534Z,11612.16
2023-02-08T15:10:00.525Z,11473.92
2023-02-08T15:11:00.517Z,11335.68
2023-02-08T15:12:00.736Z,11335.68
2023-02-08T15:13:01.036Z,11105.28
2023-02-08T15:14:01.357Z,10967.04
2023-02-08T15:15:01.591Z,10874.88
2023-02-08T15:16:02.408Z,10690.56
2023-02-08T15:17:03.162Z,10460.16
2023-02-08T15:18:03.894Z,10368.00
2023-02-08T15:19:04.258Z,10275.84
2023-02-08T15:20:04.265Z,10183.68
2023-02-08T15:21:05.101Z,9953.28
2023-02-08T15:22:05.255Z,9676.80
2023-02-08T15:23:06.163Z,9584.64
2023-02-08T15:24:07.148Z,9354.24
2023-02-08T15:25:07.978Z,9169.92
2023-02-08T15:26:08.209Z,8985.60
2023-02-08T15:27:08.498Z,8801.28
2023-02-08T15:28:08.571Z,8663.04
2023-02-08T15:29:09.381Z,8478.72
2023-02-08T15:30:10.178Z,8294.40
2023-02-08T15:31:10.973Z,8202.24
2023-02-08T15:32:11.031Z,8110.08
2023-02-08T15:33:11.145Z,7971.84
2023-02-08T15:34:11.775Z,7833.60
2023-02-08T15:35:11.837Z,7741.44
2023-02-08T15:36:11.940Z,7603.20
2023-02-08T15:36:22.260Z,7603.20
2023-02-08T15:37:24.591Z,7418.88
2023-02-08T15:38:22.754Z,7372.80
2023-02-08T15:39:23.320Z,7234.56
2023-02-08T15:40:23.655Z,7142.40
2023-02-08T15:41:24.433Z,7004.16
2023-02-08T15:42:24.618Z,6773.76
2023-02-08T15:43:24.615Z,6312.96
2023-02-08T15:44:25.039Z,6036.48
2023-02-08T15:45:25.290Z,5667.84
2023-02-08T15:46:26.266Z,4746.24
2023-02-08T15:47:26.680Z,3847.68
2023-02-08T15:48:27.585Z,3548.16
2023-02-08T15:49:28.282Z,3271.68
2023-02-08T15:50:28.387Z,2914.56
2023-02-08T15:51:28.943Z,2972.16
2023-02-08T15:52:29.135Z,2707.20
2023-02-08T15:53:30.257Z,1877.76
2023-02-08T15:54:31.060Z,1866.24
2023-02-08T15:55:31.880Z,1969.92
2023-02-08T15:56:38.419Z,1624.32
2023-02-08T15:57:33.219Z,1330.56
2023-02-08T15:58:33.380Z,1238.40
2023-02-08T15:59:33.825Z,1226.88
2023-02-08T16:00:34.350Z,1249.92
2023-02-08T16:01:35.290Z,1290.24
2023-02-08T16:02:35.449Z,1278.72
2023-02-08T16:03:35.704Z,1215.36
2023-02-08T16:04:36.488Z,1111.68
2023-02-08T16:05:36.743Z,1100.16
2023-02-08T16:06:51.496Z,1123.20
2023-02-08T16:07:52.239Z,1077.12
2023-02-08T16:08:53.178Z,1019.52
2023-02-08T16:09:53.766Z,979.20
2023-02-08T16:10:54.186Z,915.84
2023-02-08T16:11:54.908Z,892.80
2023-02-08T16:12:54.904Z,927.36
2023-02-08T16:13:55.745Z,933.12
2023-02-08T16:14:56.559Z,869.76
2023-02-08T16:16:07.271Z,688.32
2023-02-08T16:16:56.699Z,656.64
2023-02-08T16:17:57.625Z,630.72
2023-02-08T16:18:57.722Z,601.92
2023-02-08T16:19:58.767Z,576.00
2023-02-08T16:21:00.400Z,550.08
2023-02-08T16:22:00.292Z,524.16
2023-02-08T16:23:01.064Z,498.24
2023-02-08T16:24:01.266Z,472.32
2023-02-08T16:25:02.187Z,446.40
2023-02-08T16:26:03.147Z,420.48
2023-02-08T16:27:03.736Z,397.44
2023-02-08T16:28:04.321Z,371.52
2023-02-08T16:29:04.866Z,349.92
2023-02-08T16:30:05.540Z,325.44
2023-02-08T16:31:06.447Z,303.84
2023-02-08T16:32:12.932Z,282.24
2023-02-08T16:33:07.286Z,260.64
2023-02-08T16:34:07.247Z,240.48
2023-02-08T16:35:15.830Z,221.76
2023-02-08T16:36:19.103Z,200.16
2023-02-08T16:37:19.658Z,182.88
2023-02-08T16:38:20.534Z,166.32
2023-02-08T16:39:20.933Z,151.20
2023-02-08T16:40:21.817Z,136.08
2023-02-08T16:41:22.732Z,122.40
2023-02-08T16:42:22.761Z,109.44
2023-02-08T16:43:23.495Z,97.92
2023-02-08T16:44:26.007Z,86.76
2023-02-08T16:45:23.997Z,77.04
2023-02-08T16:46:24.551Z,67.68
2023-02-08T16:47:27.206Z,59.40
2023-02-08T16:48:25.842Z,51.48
2023-02-08T16:49:27.635Z,45.00
2023-02-08T16:50:26.095Z,38.88
2023-02-08T16:51:26.718Z,33.48
2023-02-08T16:52:27.113Z,28.62
2023-02-08T16:53:41.989Z,24.48
2023-02-08T16:54:28.593Z,20.70
2023-02-08T16:55:28.662Z,17.46
2023-02-08T16:56:28.918Z,14.58
2023-02-08T16:57:40.652Z,11.79
2023-02-08T16:58:40.701Z,9.77
2023-02-08T16:59:40.734Z,8.06
2023-02-08T17:00:41.966Z,6.66
2023-02-08T17:01:44.775Z,5.45
2023-02-08T17:02:45.032Z,4.50
2023-02-08T17:03:46.287Z,3.69
2023-02-08T17:04:44.997Z,3.06
2023-02-08T17:05:50.990Z,2.47
2023-02-08T17:06:44.371Z,2.07
2023-02-08T17:07:47.946Z,1.66
2023-02-08T17:08:45.100Z,1.39